Minerva Concert — SVWC — position and weather

sailwx.info

Track history (hours):
 
Tides and Currents Weather Stations Pressure Air Temp Water Temp Dewpoint Dewpoint Depression Visibility Wind Speed Wind Dir Waves Ship Positions

Minerva Concert

Last reported at 2017-May-19 00:58 UTC. Time now 2017-May-24 04:02 UTC.
Position N 26°18' W 079°26'.

Length 241 m; draft 13.1 m.

Type: Ship. MMSI: 240110000.

Date/timePositionNaut miles runAvg speedWind from/ knotsBaromVisibWave heightAir tempDewpointWater temp
2017-May-19 00:58N 26°18' W 079°26'714.4
2017-May-19 00:30N 26°12' W 079°27'814.4
2017-May-18 23:58N 26°04' W 079°28'1114.6
2017-May-18 23:13N 25°53' W 079°30'814.7
2017-May-18 22:39N 25°45' W 079°31'215.0
2017-May-18 22:30N 25°43' W 079°31'815.0
2017-May-18 22:00N 25°35' W 079°33'815.2
2017-May-18 21:30N 25°28' W 079°34'815.1
2017-May-18 21:00N 25°20' W 079°35'  
2017-May-12 23:48N 29°21' W 094°45'412.2
2017-May-12 23:30N 29°22' W 094°49'4 8.3
2017-May-12 23:00N 29°23' W 094°53'1 1.3
2017-May-12 22:30N 29°22' W 094°53'0 0.0
2017-May-11 05:29N 29°22' W 094°53'1 1.1
2017-May-11 05:00N 29°22' W 094°53'3 6.3
2017-May-11 04:29N 29°22' W 094°50'6 9.0
2017-May-11 03:52N 29°21' W 094°43'10 9.5
2017-May-11 02:51N 29°16' W 094°33'  
Track history (hours):
 
Tides and Currents Weather Stations Pressure Air Temp Water Temp Dewpoint Dewpoint Depression Visibility Wind Speed Wind Dir Waves Ship Positions

Minerva Concert

Last reported at 2017-May-19 00:58 UTC. Time now 2017-May-24 04:02 UTC.
Position N 26°18' W 079°26'.

Length 241 m; draft 13.1 m.

Type: Ship. MMSI: 240110000.

Date/timePositionNaut miles runAvg speedWind from/ knotsBaromVisibWave heightAir tempDewpointWater temp
2017-May-19 00:58N 26°18' W 079°26'714.4
2017-May-19 00:30N 26°12' W 079°27'814.4
2017-May-18 23:58N 26°04' W 079°28'1114.6
2017-May-18 23:13N 25°53' W 079°30'814.7
2017-May-18 22:39N 25°45' W 079°31'215.0
2017-May-18 22:30N 25°43' W 079°31'815.0
2017-May-18 22:00N 25°35' W 079°33'815.2
2017-May-18 21:30N 25°28' W 079°34'815.1
2017-May-18 21:00N 25°20' W 079°35'  
2017-May-12 23:48N 29°21' W 094°45'412.2
2017-May-12 23:30N 29°22' W 094°49'4 8.3
2017-May-12 23:00N 29°23' W 094°53'1 1.3
2017-May-12 22:30N 29°22' W 094°53'0 0.0
2017-May-11 05:29N 29°22' W 094°53'1 1.1
2017-May-11 05:00N 29°22' W 094°53'3 6.3
2017-May-11 04:29N 29°22' W 094°50'6 9.0
2017-May-11 03:52N 29°21' W 094°43'10 9.5
2017-May-11 02:51N 29°16' W 094°33'  

Dump ship's entire track history